Disclaimer

Please do not use the information listed here in-flight or in-navigation, as they are not provided to us by the airports but are provided by volunteers, so they might be outdated.

Search


Regions


Airport information page

Radio informations:
SALTILLO APP - 127.4 MHz

Airport informations:
Latitude: 25° 32' 58.19" N
Longitude: 100° 55' 43.21" W
Elevation: 4778 feet - 1456 meters
Operating hours: Remarks
Operating agency: Civil government, landing fees and diplomatic clearance may be required
Timezone: UTC-6(-5DT) - First Sunday in April to the last Saturday in October
Fuel: 100/130 MIL Spec, low lead, aviation gasoline (BLUE)

Runway information:
03/21 - 3471 x 148 feet< - >1058 x 45 meters
17/35 - 9506 x 148 feet< - >2897 x 45 meters

Recent METARs:
MMIO 162140Z 00000KT 10SM SKC 19/10 A3018 RMK CI
MMIO 162140Z 00000KT 10SM SKC 19/10 A3018 RMK CI
MMIO 162140Z 00000KT 10SM SKC 19/10 A3018 RMK CI

Airport on the map: